createdAt,value
2017-09-01T00:01:05.319Z,87.10
2017-09-01T00:03:33.402Z,87.00
2017-09-01T00:06:01.459Z,87.40
2017-09-01T00:08:29.506Z,87.10
2017-09-01T00:10:57.603Z,87.00
2017-09-01T00:13:25.656Z,86.90
2017-09-01T00:15:53.697Z,86.50
2017-09-01T00:18:21.778Z,86.70
2017-09-01T00:20:49.840Z,86.60
2017-09-01T00:23:17.908Z,86.70
2017-09-01T00:25:45.994Z,86.50
2017-09-01T00:28:14.067Z,86.20
2017-09-01T00:30:42.134Z,86.20
2017-09-01T00:33:10.195Z,86.70
2017-09-01T00:35:38.289Z,87.20
2017-09-01T00:38:06.333Z,87.00
2017-09-01T00:40:34.397Z,87.50
2017-09-01T00:43:03.263Z,87.20
2017-09-01T00:45:31.348Z,87.10
2017-09-01T00:47:59.422Z,87.20
2017-09-01T00:50:27.525Z,87.30
2017-09-01T00:52:55.582Z,87.90
2017-09-01T00:55:23.642Z,87.70
2017-09-01T00:57:52.198Z,87.50
2017-09-01T01:00:20.251Z,87.70
2017-09-01T01:02:49.116Z,87.50
2017-09-01T01:05:17.941Z,87.50
2017-09-01T01:07:46.775Z,87.60
2017-09-01T01:10:14.862Z,87.60
2017-09-01T01:12:42.931Z,88.70
2017-09-01T01:15:11.002Z,87.90
2017-09-01T01:17:39.070Z,87.40
2017-09-01T01:20:07.127Z,87.60
2017-09-01T01:22:35.198Z,87.20
2017-09-01T01:25:03.243Z,87.20
2017-09-01T01:27:31.384Z,86.90
2017-09-01T01:29:59.403Z,86.90
2017-09-01T01:32:27.468Z,86.80
2017-09-01T01:34:55.547Z,86.60
2017-09-01T01:37:23.596Z,86.70
2017-09-01T01:39:51.668Z,86.30
2017-09-01T01:42:19.736Z,86.40
2017-09-01T01:44:47.786Z,86.00
2017-09-01T01:47:15.856Z,85.70
2017-09-01T01:49:43.918Z,86.00
2017-09-01T01:52:12.754Z,85.50
2017-09-01T01:54:40.817Z,85.40
2017-09-01T01:57:08.879Z,85.70
2017-09-01T01:59:36.935Z,85.50
2017-09-01T02:02:05.020Z,85.50
2017-09-01T02:04:33.915Z,86.30
2017-09-01T02:07:01.970Z,85.40
2017-09-01T02:09:30.027Z,85.40
2017-09-01T02:11:58.106Z,85.30
2017-09-01T02:14:26.176Z,85.60
2017-09-01T02:16:55.013Z,86.10
2017-09-01T02:19:23.078Z,86.00
2017-09-01T02:21:51.146Z,86.10
2017-09-01T02:24:19.200Z,86.10
2017-09-01T02:26:47.322Z,86.30
2017-09-01T02:29:15.386Z,86.10
2017-09-01T02:31:43.459Z,86.40
2017-09-01T02:34:12.316Z,86.50
2017-09-01T02:36:40.394Z,86.50
2017-09-01T02:39:08.466Z,86.60
2017-09-01T02:41:37.284Z,86.70
2017-09-01T02:44:05.358Z,86.70
2017-09-01T02:46:33.417Z,86.30
2017-09-01T02:49:01.516Z,86.50
2017-09-01T02:51:29.573Z,86.20
2017-09-01T02:53:57.639Z,87.30
2017-09-01T02:56:25.719Z,86.30
2017-09-01T02:58:53.786Z,86.90
2017-09-01T03:01:21.857Z,87.30
2017-09-01T03:03:50.703Z,86.60
2017-09-01T03:06:18.772Z,86.60
2017-09-01T03:08:46.880Z,85.90
2017-09-01T03:11:14.952Z,86.10
2017-09-01T03:13:43.023Z,86.00
2017-09-01T03:16:11.111Z,86.00
2017-09-01T03:18:39.232Z,85.90
2017-09-01T03:21:07.322Z,85.70
2017-09-01T03:23:36.146Z,86.80
2017-09-01T03:26:04.260Z,86.70
2017-09-01T03:28:32.325Z,86.90
2017-09-01T03:31:00.419Z,85.90
2017-09-01T03:33:28.503Z,85.80
2017-09-01T03:35:56.579Z,85.90
2017-09-01T03:38:24.644Z,85.80
2017-09-01T03:40:52.711Z,85.70
2017-09-01T03:43:20.802Z,85.60
2017-09-01T03:45:48.850Z,86.10
2017-09-01T03:48:16.931Z,86.00
2017-09-01T03:50:44.998Z,85.90
2017-09-01T03:53:13.087Z,86.40
2017-09-01T03:55:41.151Z,86.70
2017-09-01T03:58:09.206Z,86.10
2017-09-01T04:00:37.279Z,86.40
2017-09-01T04:03:05.347Z,86.50
2017-09-01T04:05:33.438Z,87.00
2017-09-01T04:08:01.530Z,87.30
2017-09-01T04:10:29.586Z,88.00
2017-09-01T04:12:57.648Z,87.20
2017-09-01T04:15:27.854Z,86.40
2017-09-01T04:17:56.699Z,85.90
2017-09-01T04:20:24.769Z,86.00
2017-09-01T04:22:52.892Z,85.70
2017-09-01T04:25:20.956Z,86.00
2017-09-01T04:27:49.024Z,85.90
2017-09-01T04:30:17.084Z,85.70
2017-09-01T04:32:45.142Z,85.70
2017-09-01T04:35:13.231Z,85.30
2017-09-01T04:37:41.304Z,86.00
2017-09-01T04:40:09.382Z,86.60
2017-09-01T04:42:37.440Z,87.00
2017-09-01T04:45:05.525Z,87.40
2017-09-01T04:47:33.609Z,87.20
2017-09-01T04:50:01.673Z,86.60
2017-09-01T04:52:29.752Z,86.70
2017-09-01T04:54:57.819Z,85.80
2017-09-01T04:57:25.882Z,85.50
2017-09-01T04:59:53.959Z,85.60
2017-09-01T05:02:22.050Z,85.80
2017-09-01T05:04:50.903Z,85.90
2017-09-01T05:07:19.012Z,85.90
2017-09-01T05:09:47.079Z,86.10
2017-09-01T05:12:15.146Z,86.70
2017-09-01T05:14:43.995Z,88.00
2017-09-01T05:17:12.054Z,87.90
2017-09-01T05:19:40.899Z,88.10
2017-09-01T05:22:08.979Z,88.00
2017-09-01T05:24:37.038Z,88.70
2017-09-01T05:27:05.135Z,88.80
2017-09-01T05:29:33.186Z,88.90
2017-09-01T05:32:01.920Z,89.00
2017-09-01T05:34:29.976Z,90.20
2017-09-01T05:36:58.354Z,90.60
2017-09-01T05:39:27.023Z,91.80
2017-09-01T05:41:55.179Z,90.90
2017-09-01T05:44:23.287Z,90.70
2017-09-01T05:46:51.702Z,90.90
2017-09-01T05:49:19.752Z,91.00
2017-09-01T05:51:47.873Z,91.10
2017-09-01T05:54:15.990Z,91.20
2017-09-01T05:56:44.064Z,91.00
2017-09-01T05:59:12.800Z,91.10
2017-09-01T06:01:40.887Z,91.30
2017-09-01T06:04:08.965Z,90.50
2017-09-01T06:06:37.313Z,90.00
2017-09-01T06:09:05.417Z,90.10
2017-09-01T06:11:33.515Z,90.90
2017-09-01T06:14:01.631Z,90.70
2017-09-01T06:16:31.281Z,90.70
2017-09-01T06:18:59.344Z,90.60
2017-09-01T06:21:28.131Z,91.50
2017-09-01T06:23:56.890Z,90.50
2017-09-01T06:26:24.964Z,90.50
2017-09-01T06:28:53.080Z,90.50
2017-09-01T06:31:21.147Z,91.00
2017-09-01T06:33:49.219Z,88.50
2017-09-01T06:36:17.275Z,90.20
2017-09-01T06:38:45.356Z,90.60
2017-09-01T06:41:13.478Z,91.60
2017-09-01T06:43:41.551Z,91.40
2017-09-01T06:46:09.623Z,92.10
2017-09-01T06:48:37.688Z,91.70
2017-09-01T06:51:05.761Z,91.30
2017-09-01T06:53:33.822Z,90.60
2017-09-01T06:56:01.920Z,91.00
2017-09-01T06:58:29.968Z,90.50
2017-09-01T07:00:58.039Z,90.20
2017-09-01T07:03:26.111Z,90.10
2017-09-01T07:05:54.181Z,88.90
2017-09-01T07:08:22.262Z,88.30
2017-09-01T07:10:51.090Z,87.80
2017-09-01T07:13:19.195Z,87.70
2017-09-01T07:15:47.290Z,86.00
2017-09-01T07:18:15.359Z,85.10
2017-09-01T07:20:43.443Z,83.80
2017-09-01T07:23:11.568Z,83.30
2017-09-01T07:25:39.670Z,81.00
2017-09-01T07:28:07.746Z,81.60
2017-09-01T07:30:35.822Z,82.70
2017-09-01T07:33:03.896Z,83.10
2017-09-01T07:35:32.006Z,82.40
2017-09-01T07:38:00.118Z,80.80
2017-09-01T07:40:28.282Z,83.00
2017-09-01T07:42:56.359Z,80.90
2017-09-01T07:45:24.431Z,77.40
2017-09-01T07:47:52.510Z,75.30
2017-09-01T07:50:20.599Z,75.30
2017-09-01T07:52:48.742Z,76.70
2017-09-01T07:55:17.047Z,75.60
2017-09-01T07:57:45.108Z,74.20
2017-09-01T08:00:13.202Z,73.10
2017-09-01T08:02:41.283Z,71.60
2017-09-01T08:05:09.343Z,73.20
2017-09-01T08:07:37.431Z,72.50
2017-09-01T08:10:05.506Z,72.80
2017-09-01T08:12:34.533Z,72.60
2017-09-01T08:15:03.379Z,72.30
2017-09-01T08:17:31.473Z,72.10
2017-09-01T08:20:00.311Z,72.40
2017-09-01T08:22:28.372Z,72.30
2017-09-01T08:24:56.447Z,70.30
2017-09-01T08:27:24.523Z,69.10
2017-09-01T08:29:52.575Z,68.00
2017-09-01T08:32:20.632Z,67.00
2017-09-01T08:34:48.723Z,66.70
2017-09-01T08:37:16.771Z,66.90
2017-09-01T08:39:44.848Z,66.20
2017-09-01T08:42:12.915Z,65.40
2017-09-01T08:44:40.990Z,64.70
2017-09-01T08:47:09.088Z,63.20
2017-09-01T08:49:37.142Z,64.10
2017-09-01T08:52:05.201Z,63.20
2017-09-01T08:54:33.284Z,60.70
2017-09-01T08:57:01.356Z,60.60
2017-09-01T08:59:29.435Z,60.50
2017-09-01T09:01:57.506Z,60.40
2017-09-01T09:04:25.575Z,60.60
2017-09-01T09:06:53.734Z,60.60
2017-09-01T09:09:21.819Z,59.10
2017-09-01T09:11:49.884Z,57.90
2017-09-01T09:14:17.965Z,58.30
2017-09-01T09:16:46.034Z,58.30
2017-09-01T09:19:14.169Z,56.80
2017-09-01T09:21:42.251Z,57.30
2017-09-01T09:24:10.327Z,56.20
2017-09-01T09:26:38.395Z,56.80
2017-09-01T09:29:06.476Z,55.00
2017-09-01T09:31:34.550Z,55.30
2017-09-01T09:34:02.620Z,56.20
2017-09-01T09:36:31.995Z,56.40
2017-09-01T09:39:00.080Z,55.50
2017-09-01T09:41:28.148Z,54.80
2017-09-01T09:43:56.227Z,54.30
2017-09-01T09:46:25.054Z,55.30
2017-09-01T09:48:53.231Z,55.50
2017-09-01T09:51:21.340Z,55.70
2017-09-01T09:53:49.374Z,57.00
2017-09-01T09:56:17.446Z,59.10
2017-09-01T09:58:45.513Z,59.90
2017-09-01T10:01:13.604Z,60.80
2017-09-01T10:03:41.663Z,60.70
2017-09-01T10:06:09.742Z,60.40
2017-09-01T10:08:37.807Z,61.80
2017-09-01T10:11:05.895Z,62.70
2017-09-01T10:13:34.003Z,63.70
2017-09-01T10:16:02.074Z,61.60
2017-09-01T10:18:30.143Z,60.60
2017-09-01T10:20:58.203Z,59.30
2017-09-01T10:23:26.291Z,58.90
2017-09-01T10:25:54.355Z,59.50
2017-09-01T10:28:22.439Z,59.30
2017-09-01T10:30:50.505Z,60.10
2017-09-01T10:33:18.577Z,59.70
2017-09-01T10:35:46.654Z,59.10
2017-09-01T10:38:14.727Z,57.50
2017-09-01T10:40:42.795Z,59.10
2017-09-01T10:43:10.862Z,58.40
2017-09-01T10:45:39.143Z,58.50
2017-09-01T10:48:19.560Z,60.50
2017-09-01T10:51:00.076Z,62.20
2017-09-01T10:53:40.159Z,64.40
2017-09-01T10:56:20.235Z,63.70
2017-09-01T10:58:48.334Z,66.30
2017-09-01T11:01:16.399Z,66.80
2017-09-01T11:03:44.472Z,68.40
2017-09-01T11:06:12.550Z,72.20
2017-09-01T11:08:40.662Z,72.70
2017-09-01T11:11:08.737Z,77.20
2017-09-01T11:13:36.840Z,83.20
2017-09-01T11:16:04.902Z,85.00
2017-09-01T11:18:32.963Z,85.50
2017-09-01T11:34:27.499Z,91.20
2017-09-01T11:36:56.346Z,92.40
2017-09-01T11:39:24.446Z,92.40
2017-09-01T11:41:52.514Z,93.40
2017-09-01T11:44:20.569Z,91.90
2017-09-01T11:46:48.639Z,91.60
2017-09-01T11:49:16.784Z,91.80
2017-09-01T11:51:44.861Z,92.80
2017-09-01T11:54:12.925Z,91.50
2017-09-01T11:56:40.990Z,91.20
2017-09-01T11:59:09.082Z,92.60
2017-09-01T12:01:37.158Z,92.70
2017-09-01T12:04:05.240Z,93.00
2017-09-01T12:06:33.332Z,93.90
2017-09-01T12:09:01.413Z,94.80
2017-09-01T12:11:30.280Z,95.70
2017-09-01T12:13:58.351Z,95.70
2017-09-01T12:16:26.415Z,96.40
2017-09-01T12:18:54.492Z,96.90
2017-09-01T12:21:22.558Z,97.20
2017-09-01T12:23:50.663Z,96.70
2017-09-01T12:26:18.726Z,97.40
2017-09-01T12:28:46.808Z,97.10
2017-09-01T12:31:14.903Z,97.40
2017-09-01T12:33:42.964Z,96.80
2017-09-01T12:36:11.039Z,96.60
2017-09-01T12:38:39.104Z,98.00
2017-09-01T12:41:07.184Z,97.70
2017-09-01T12:43:35.252Z,97.00
2017-09-01T12:46:03.330Z,96.70
2017-09-01T12:48:31.407Z,95.60
2017-09-01T12:51:00.334Z,96.00
2017-09-01T12:53:28.385Z,95.90
2017-09-01T12:55:57.226Z,96.60
2017-09-01T12:58:25.295Z,96.60
2017-09-01T13:00:53.366Z,95.50
2017-09-01T13:03:22.054Z,95.80
2017-09-01T13:05:50.139Z,95.50
2017-09-01T13:08:18.196Z,95.00
2017-09-01T13:10:46.266Z,95.80
2017-09-01T13:13:14.336Z,97.60
2017-09-01T13:15:42.386Z,98.40
2017-09-01T13:18:10.489Z,98.70
2017-09-01T13:20:38.615Z,97.30
2017-09-01T13:23:06.698Z,97.60
2017-09-01T13:25:34.786Z,96.60
2017-09-01T13:28:02.883Z,97.40
2017-09-01T13:30:30.955Z,97.30
2017-09-01T13:32:59.011Z,98.00
2017-09-01T13:35:27.127Z,98.20
2017-09-01T13:37:55.164Z,98.80
2017-09-01T13:40:23.236Z,98.00
2017-09-01T13:42:51.299Z,98.30
2017-09-01T13:45:19.365Z,97.60
2017-09-01T13:47:47.440Z,96.90
2017-09-01T13:50:15.508Z,98.10
2017-09-01T13:52:43.675Z,98.00
2017-09-01T13:55:11.752Z,99.00
2017-09-01T13:57:39.827Z,98.10
2017-09-01T14:00:07.933Z,98.80
2017-09-01T14:02:36.794Z,97.90
2017-09-01T14:05:05.644Z,96.80
2017-09-01T14:07:33.732Z,96.80
2017-09-01T14:10:01.854Z,96.50
2017-09-01T14:12:29.925Z,96.20
2017-09-01T14:14:57.971Z,96.70
2017-09-01T14:17:26.860Z,98.50
2017-09-01T14:19:54.910Z,98.50
2017-09-01T14:22:23.002Z,98.30
2017-09-01T14:24:51.068Z,96.80
2017-09-01T14:27:19.216Z,97.20
2017-09-01T14:29:47.288Z,98.00
2017-09-01T14:32:15.368Z,97.60
2017-09-01T14:34:43.452Z,97.90
2017-09-01T14:37:11.577Z,97.80
2017-09-01T14:39:39.667Z,98.50
2017-09-01T14:42:07.724Z,99.00
2017-09-01T14:44:35.780Z,99.10
2017-09-01T14:47:03.883Z,99.60
2017-09-01T14:49:31.951Z,99.60
2017-09-01T14:52:00.027Z,98.80
2017-09-01T14:54:28.107Z,98.90
2017-09-01T14:56:56.189Z,99.50
2017-09-01T14:59:24.339Z,99.40
2017-09-01T15:01:53.649Z,99.90
2017-09-01T15:04:21.732Z,99.90
2017-09-01T15:06:49.835Z,99.90
2017-09-01T15:09:17.949Z,99.90
2017-09-01T15:11:45.983Z,99.90
2017-09-01T15:14:14.085Z,99.90
2017-09-01T15:16:42.910Z,99.90
2017-09-01T15:19:10.974Z,99.90
2017-09-01T15:21:39.068Z,99.90
2017-09-01T15:24:07.156Z,99.90
2017-09-01T15:26:35.223Z,99.10
2017-09-01T15:29:03.301Z,99.20
2017-09-01T15:31:31.369Z,99.30
2017-09-01T15:33:59.436Z,99.30
2017-09-01T15:36:27.494Z,98.60
2017-09-01T15:38:55.594Z,96.80
2017-09-01T15:41:23.653Z,96.60
2017-09-01T15:43:51.726Z,96.70
2017-09-01T15:46:19.794Z,96.50
2017-09-01T15:48:47.880Z,96.70
2017-09-01T15:51:15.945Z,96.20
2017-09-01T15:53:44.844Z,96.10
2017-09-01T15:56:12.908Z,96.40
2017-09-01T15:58:40.973Z,96.10
2017-09-01T16:01:09.771Z,95.80
2017-09-01T16:03:37.844Z,95.80
2017-09-01T16:06:05.947Z,95.00
2017-09-01T16:08:34.780Z,94.90
2017-09-01T16:11:02.855Z,94.90
2017-09-01T16:13:30.914Z,94.60
2017-09-01T16:15:58.970Z,94.40
2017-09-01T16:18:27.049Z,94.80
2017-09-01T16:20:55.111Z,95.20
2017-09-01T16:23:23.199Z,95.40
2017-09-01T16:25:51.748Z,95.60
2017-09-01T16:28:19.822Z,95.50
2017-09-01T16:30:47.951Z,94.90
2017-09-01T16:33:16.021Z,94.90
2017-09-01T16:35:44.088Z,94.70
2017-09-01T16:38:12.883Z,94.80
2017-09-01T16:40:40.951Z,94.80
2017-09-01T16:43:09.024Z,95.20
2017-09-01T16:45:37.111Z,94.90
2017-09-01T16:48:05.219Z,94.70
2017-09-01T16:50:33.292Z,94.50
2017-09-01T16:53:01.362Z,94.40
2017-09-01T16:55:29.422Z,94.40
2017-09-01T16:57:57.504Z,93.90
2017-09-01T17:00:25.568Z,94.20
2017-09-01T17:02:53.663Z,94.00
2017-09-01T17:05:21.711Z,93.90
2017-09-01T17:07:49.803Z,94.00
2017-09-01T17:10:17.878Z,93.90
2017-09-01T17:12:45.951Z,93.90
2017-09-01T17:15:14.027Z,93.30
2017-09-01T17:17:42.860Z,93.40
2017-09-01T17:20:10.936Z,93.40
2017-09-01T17:22:39.012Z,93.20
2017-09-01T17:25:07.099Z,93.30
2017-09-01T17:27:35.171Z,92.70
2017-09-01T17:30:03.234Z,93.10
2017-09-01T17:32:31.327Z,92.60
2017-09-01T17:34:59.408Z,93.00
2017-09-01T17:37:27.472Z,92.40
2017-09-01T17:39:55.568Z,92.30
2017-09-01T17:42:23.646Z,92.30
2017-09-01T17:44:51.706Z,92.30
2017-09-01T17:47:19.771Z,92.40
2017-09-01T17:49:47.850Z,92.50
2017-09-01T17:52:15.919Z,92.40
2017-09-01T17:54:43.991Z,92.50
2017-09-01T17:57:12.059Z,92.50
2017-09-01T17:59:40.133Z,92.40
2017-09-01T18:02:08.227Z,92.40
2017-09-01T18:04:37.071Z,92.90
2017-09-01T18:07:05.241Z,92.90
2017-09-01T18:09:33.306Z,93.20
2017-09-01T18:12:01.406Z,93.40
2017-09-01T18:14:29.490Z,94.00
2017-09-01T18:16:57.578Z,94.50
2017-09-01T18:19:25.653Z,94.70
2017-09-01T18:21:53.845Z,94.90
2017-09-01T18:24:21.907Z,95.10
2017-09-01T18:26:49.967Z,95.40
2017-09-01T18:29:18.086Z,95.50
2017-09-01T18:31:46.930Z,95.10
2017-09-01T18:34:15.004Z,95.10
2017-09-01T18:36:43.203Z,95.10
2017-09-01T18:39:11.987Z,94.80
2017-09-01T18:41:40.082Z,94.60
2017-09-01T18:44:08.915Z,94.80
2017-09-01T18:46:36.987Z,94.80
2017-09-01T18:49:05.079Z,94.60
2017-09-01T18:51:33.150Z,94.90
2017-09-01T18:54:01.226Z,95.20
2017-09-01T18:56:30.328Z,95.20
2017-09-01T18:58:58.474Z,95.20
2017-09-01T19:01:26.563Z,95.10
2017-09-01T19:03:54.633Z,95.10
2017-09-01T19:06:22.761Z,95.10
2017-09-01T19:08:51.603Z,94.90
2017-09-01T19:11:19.672Z,94.90
2017-09-01T19:13:47.740Z,94.90
2017-09-01T19:16:15.819Z,95.30
2017-09-01T19:18:43.895Z,94.90
2017-09-01T19:21:11.975Z,95.00
2017-09-01T19:23:40.027Z,94.80
2017-09-01T19:26:08.727Z,94.60
2017-09-01T19:28:36.823Z,94.60
2017-09-01T19:31:04.899Z,94.50
2017-09-01T19:33:32.983Z,94.70
2017-09-01T19:36:01.076Z,94.90
2017-09-01T19:38:29.156Z,94.80
2017-09-01T19:40:57.979Z,95.30
2017-09-01T19:43:26.054Z,94.80
2017-09-01T19:45:54.134Z,94.70
2017-09-01T19:48:22.208Z,94.60
2017-09-01T19:50:50.304Z,94.60
2017-09-01T19:53:18.378Z,94.60
2017-09-01T19:55:46.466Z,94.70
2017-09-01T19:58:15.307Z,94.60
2017-09-01T20:00:43.378Z,94.60
2017-09-01T20:03:11.483Z,94.40
2017-09-01T20:05:39.579Z,94.30
2017-09-01T20:08:07.673Z,94.50
2017-09-01T20:10:35.744Z,94.70
2017-09-01T20:13:03.859Z,94.60
2017-09-01T20:15:31.949Z,94.70
2017-09-01T20:18:00.029Z,94.60
2017-09-01T20:20:28.115Z,94.80
2017-09-01T20:22:57.017Z,94.50
2017-09-01T20:25:25.063Z,94.50
2017-09-01T20:27:53.144Z,94.70
2017-09-01T20:30:21.212Z,94.70
2017-09-01T20:32:49.272Z,94.80
2017-09-01T20:35:17.358Z,94.90
2017-09-01T20:37:45.447Z,95.00
2017-09-01T20:40:14.297Z,94.70
2017-09-01T20:42:42.392Z,94.70
2017-09-01T20:45:10.471Z,94.60
2017-09-01T20:47:38.553Z,95.10
2017-09-01T20:50:06.638Z,94.80
2017-09-01T20:52:34.724Z,94.90
2017-09-01T20:55:02.786Z,94.80
2017-09-01T20:57:30.868Z,95.00
2017-09-01T20:59:58.954Z,95.00
2017-09-01T21:02:27.010Z,94.70
2017-09-01T21:04:55.124Z,94.50
2017-09-01T21:07:23.217Z,94.70
2017-09-01T21:09:51.313Z,94.80
2017-09-01T21:12:19.387Z,95.00
2017-09-01T21:14:48.204Z,95.00
2017-09-01T21:17:16.298Z,95.00
2017-09-01T21:19:44.372Z,94.90
2017-09-01T21:22:12.447Z,94.70
2017-09-01T21:24:40.514Z,94.70
2017-09-01T21:27:08.595Z,94.50
2017-09-01T21:29:36.667Z,94.20
2017-09-01T21:32:04.824Z,94.30
2017-09-01T21:34:32.851Z,94.20
2017-09-01T21:37:00.940Z,94.20
2017-09-01T21:39:29.015Z,94.10
2017-09-01T21:41:57.090Z,94.50
2017-09-01T21:44:25.965Z,94.30
2017-09-01T21:46:54.048Z,94.30
2017-09-01T21:49:22.110Z,94.30
2017-09-01T21:51:51.068Z,94.30
2017-09-01T21:54:19.132Z,94.20
2017-09-01T21:56:47.205Z,94.60
2017-09-01T21:59:15.284Z,95.00
2017-09-01T22:01:43.346Z,95.00
2017-09-01T22:04:11.420Z,95.00
2017-09-01T22:06:39.488Z,95.00
2017-09-01T22:09:07.571Z,95.10
2017-09-01T22:11:35.643Z,95.00
2017-09-01T22:14:03.728Z,95.00
2017-09-01T22:16:31.790Z,95.20
2017-09-01T22:18:59.875Z,95.40
2017-09-01T22:21:28.006Z,95.50
2017-09-01T22:23:56.065Z,95.70
2017-09-01T22:26:24.140Z,95.70
2017-09-01T22:28:52.204Z,95.80
2017-09-01T22:31:20.292Z,95.70
2017-09-01T22:33:48.368Z,95.40
2017-09-01T22:36:16.450Z,95.30
2017-09-01T22:38:44.520Z,95.00
2017-09-01T22:41:12.575Z,94.80
2017-09-01T22:43:41.414Z,94.60
2017-09-01T22:46:09.529Z,94.60
2017-09-01T22:48:37.572Z,94.60
2017-09-01T22:51:05.643Z,94.30
2017-09-01T22:53:33.715Z,94.30
2017-09-01T22:56:01.779Z,94.40
2017-09-01T22:58:29.859Z,94.30
2017-09-01T23:00:58.703Z,94.20
2017-09-01T23:03:26.851Z,94.20
2017-09-01T23:05:55.010Z,94.20
2017-09-01T23:08:23.056Z,94.20
2017-09-01T23:10:51.111Z,94.20
2017-09-01T23:13:19.172Z,94.70
2017-09-01T23:15:47.271Z,94.60
2017-09-01T23:18:15.339Z,94.70
2017-09-01T23:20:43.407Z,94.50
2017-09-01T23:23:11.476Z,94.40
2017-09-01T23:25:39.546Z,94.60
2017-09-01T23:28:07.610Z,94.70
2017-09-01T23:30:37.223Z,94.60
2017-09-01T23:33:05.279Z,94.20
2017-09-01T23:35:33.342Z,94.10
2017-09-01T23:38:01.436Z,94.20
2017-09-01T23:40:29.487Z,94.20
2017-09-01T23:42:57.576Z,94.30
2017-09-01T23:45:25.647Z,94.40
2017-09-01T23:47:53.731Z,94.30
2017-09-01T23:50:21.820Z,94.10
2017-09-01T23:52:49.891Z,94.10
2017-09-01T23:55:17.957Z,94.00
2017-09-01T23:57:46.043Z,93.90
